createdAt,value
2023-02-28T00:04:54.209Z,4.83
2023-02-28T00:09:56.312Z,4.87
2023-02-28T00:14:59.714Z,4.20
2023-02-28T00:20:11.287Z,4.93
2023-02-28T00:25:14.976Z,5.13
2023-02-28T00:30:19.776Z,5.70
2023-02-28T00:35:22.171Z,5.43
2023-02-28T00:40:24.436Z,4.80
2023-02-28T00:45:28.338Z,5.27
2023-02-28T00:50:30.925Z,4.80
2023-02-28T00:55:32.944Z,5.07
2023-02-28T01:00:36.246Z,4.70
2023-02-28T01:05:38.296Z,5.13
2023-02-28T01:10:40.585Z,5.23
2023-02-28T01:15:47.987Z,5.50
2023-02-28T01:20:50.114Z,5.50
2023-02-28T01:25:52.529Z,5.20
2023-02-28T01:30:56.046Z,5.60
2023-02-28T01:36:01.405Z,5.30
2023-02-28T01:41:04.094Z,5.30
2023-02-28T01:46:08.031Z,5.90
2023-02-28T01:51:13.452Z,5.60
2023-02-28T01:56:21.610Z,5.10
2023-02-28T02:01:28.976Z,6.00
2023-02-28T02:06:36.596Z,5.83
2023-02-28T02:11:38.978Z,5.53
2023-02-28T02:16:57.692Z,5.67
2023-02-28T02:22:16.330Z,5.63
2023-02-28T02:27:28.780Z,6.23
2023-02-28T02:32:58.728Z,6.10
2023-02-28T02:38:09.572Z,5.67
2023-02-28T02:43:19.567Z,5.83
2023-02-28T02:48:26.422Z,6.03
2023-02-28T02:53:34.558Z,6.20
2023-02-28T02:58:43.138Z,6.40
2023-02-28T03:03:47.507Z,6.63
2023-02-28T03:08:51.043Z,6.50
2023-02-28T03:14:21.439Z,6.93
2023-02-28T03:19:54.770Z,7.10
2023-02-28T03:25:06.964Z,7.07
2023-02-28T03:30:15.477Z,6.13
2023-02-28T03:35:23.212Z,6.43
2023-02-28T03:40:32.465Z,6.40
2023-02-28T03:45:37.988Z,6.53
2023-02-28T03:50:42.038Z,6.13
2023-02-28T03:55:50.410Z,6.47
2023-02-28T04:00:59.937Z,6.60
2023-02-28T04:06:02.237Z,6.30
2023-02-28T04:11:11.101Z,7.00
2023-02-28T04:16:18.802Z,7.27
2023-02-28T04:21:27.950Z,8.10
2023-02-28T04:26:32.993Z,7.10
2023-02-28T04:31:35.253Z,6.40
2023-02-28T04:36:38.352Z,5.83
2023-02-28T04:41:42.098Z,6.33
2023-02-28T04:46:44.505Z,6.43
2023-02-28T04:51:46.748Z,6.07
2023-02-28T04:56:51.062Z,6.17
2023-02-28T05:01:53.378Z,6.33
2023-02-28T05:06:56.556Z,7.13
2023-02-28T05:11:59.866Z,8.07
2023-02-28T05:17:02.215Z,6.60
2023-02-28T05:22:04.551Z,7.00
2023-02-28T05:27:10.223Z,6.83
2023-02-28T05:32:13.016Z,6.73
2023-02-28T05:37:16.779Z,6.50
2023-02-28T05:42:20.359Z,7.60
2023-02-28T05:47:22.351Z,6.97
2023-02-28T05:52:24.683Z,7.30
2023-02-28T05:57:28.558Z,6.60
2023-02-28T06:02:30.889Z,6.67
2023-02-28T06:07:32.692Z,7.53
2023-02-28T06:12:35.987Z,7.27
2023-02-28T06:17:38.223Z,7.37
2023-02-28T06:22:40.175Z,7.30
2023-02-28T06:27:44.278Z,7.47
2023-02-28T06:32:46.781Z,7.27
2023-02-28T06:37:49.383Z,7.43
2023-02-28T06:42:52.844Z,7.50
2023-02-28T06:47:55.335Z,8.67
2023-02-28T06:52:57.488Z,7.83
2023-02-28T06:58:01.478Z,7.80
2023-02-28T07:03:03.733Z,7.40
2023-02-28T07:08:07.428Z,7.53
2023-02-28T07:13:12.037Z,8.00
2023-02-28T07:18:14.451Z,7.50
2023-02-28T07:23:16.518Z,6.97
2023-02-28T07:28:20.448Z,6.87
2023-02-28T07:33:22.388Z,7.07
2023-02-28T07:38:24.304Z,7.30
2023-02-28T07:43:27.798Z,6.97
2023-02-28T07:48:30.161Z,7.57
2023-02-28T07:53:32.794Z,7.50
2023-02-28T07:58:39.511Z,7.80
2023-02-28T08:03:42.838Z,6.87
2023-02-28T08:08:45.620Z,7.50
2023-02-28T08:13:49.455Z,7.50
2023-02-28T08:18:52.301Z,7.23
2023-02-28T08:23:54.892Z,7.67
2023-02-28T08:29:00.353Z,7.73
2023-02-28T08:34:06.973Z,7.30
2023-02-28T08:39:10.177Z,7.27
2023-02-28T08:44:13.884Z,6.90
2023-02-28T08:49:17.121Z,6.43
2023-02-28T08:54:20.611Z,7.13
2023-02-28T08:59:24.593Z,7.60
2023-02-28T09:04:26.750Z,6.60
2023-02-28T09:09:28.820Z,6.37
2023-02-28T09:14:33.013Z,6.83
2023-02-28T09:19:35.236Z,6.17
2023-02-28T09:24:38.604Z,6.03
2023-02-28T09:29:42.113Z,6.83
2023-02-28T09:34:44.587Z,6.27
2023-02-28T09:39:46.895Z,6.40
2023-02-28T09:44:51.167Z,5.90
2023-02-28T09:49:53.488Z,5.67
2023-02-28T09:54:56.078Z,6.60
2023-02-28T10:00:11.619Z,6.70
2023-02-28T10:05:17.018Z,5.77
2023-02-28T10:10:26.807Z,6.73
2023-02-28T10:15:34.421Z,6.33
2023-02-28T10:20:41.183Z,6.33
2023-02-28T10:25:49.228Z,7.07
2023-02-28T10:30:55.635Z,6.87
2023-02-28T10:35:58.169Z,6.73
2023-02-28T10:41:08.235Z,6.77
2023-02-28T10:46:27.064Z,6.90
2023-02-28T10:51:39.122Z,7.10
2023-02-28T10:56:41.478Z,7.07
2023-02-28T11:01:47.389Z,7.57
2023-02-28T11:06:50.118Z,7.10
2023-02-28T11:11:53.790Z,7.27
2023-02-28T11:17:04.502Z,7.57
2023-02-28T11:22:07.711Z,7.47
2023-02-28T11:27:28.078Z,7.43
2023-02-28T11:32:33.554Z,7.60
2023-02-28T11:37:36.019Z,7.77
2023-02-28T11:42:52.869Z,7.60
2023-02-28T11:48:04.433Z,7.47
2023-02-28T11:53:17.405Z,7.70
2023-02-28T11:58:46.690Z,7.63
2023-02-28T12:04:01.829Z,7.30
2023-02-28T12:09:14.784Z,7.38
2023-02-28T12:14:32.315Z,7.60
2023-02-28T12:19:45.368Z,7.32
2023-02-28T12:25:05.382Z,7.90
2023-02-28T12:30:15.909Z,7.60
2023-02-28T12:35:25.294Z,7.73
2023-02-28T12:40:32.020Z,7.37
2023-02-28T12:45:42.953Z,7.30
2023-02-28T12:50:46.646Z,7.03
2023-02-28T12:55:52.823Z,7.73
2023-02-28T13:01:33.119Z,7.73
2023-02-28T13:06:52.589Z,7.00
2023-02-28T13:11:56.955Z,7.03
2023-02-28T13:17:03.696Z,7.20
2023-02-28T13:22:17.897Z,7.18
2023-02-28T13:27:35.892Z,7.07
2023-02-28T13:32:41.661Z,8.07
2023-02-28T13:37:52.993Z,7.38
2023-02-28T13:42:55.501Z,6.93
2023-02-28T13:48:02.169Z,7.32
2023-02-28T13:53:36.365Z,7.45
2023-02-28T13:58:57.027Z,7.35
2023-02-28T14:04:41.095Z,7.07
2023-02-28T14:09:58.750Z,7.25
2023-02-28T14:15:01.112Z,7.57
2023-02-28T14:20:04.411Z,7.20
2023-02-28T14:25:20.983Z,7.55
2023-02-28T14:30:45.606Z,7.25
2023-02-28T14:35:58.976Z,7.10
2023-02-28T14:41:07.373Z,7.32
2023-02-28T14:46:09.635Z,7.30
2023-02-28T14:51:11.913Z,7.43
2023-02-28T14:56:24.526Z,8.17
2023-02-28T15:01:28.186Z,8.80
2023-02-28T15:06:30.759Z,8.70
2023-02-28T15:11:34.554Z,8.90
2023-02-28T15:16:41.824Z,8.93
2023-02-28T15:21:48.268Z,9.83
2023-02-28T15:26:56.770Z,8.67
2023-02-28T15:32:03.082Z,8.43
2023-02-28T15:37:09.568Z,9.10
2023-02-28T15:42:21.896Z,9.17
2023-02-28T15:47:26.151Z,9.00
2023-02-28T15:52:35.898Z,9.50
2023-02-28T15:57:42.633Z,9.63
2023-02-28T16:02:46.101Z,10.07
2023-02-28T16:07:49.404Z,9.60
2023-02-28T16:12:53.126Z,18.80
2023-02-28T16:17:56.605Z,10.77
2023-02-28T16:23:02.461Z,9.83
2023-02-28T16:28:09.245Z,9.80
2023-02-28T16:33:12.361Z,11.73
2023-02-28T16:38:15.220Z,9.57
2023-02-28T16:43:23.312Z,10.93
2023-02-28T16:48:25.769Z,9.93
2023-02-28T16:53:28.429Z,9.87
2023-02-28T16:58:32.575Z,10.17
2023-02-28T17:03:36.244Z,10.63
2023-02-28T17:08:39.069Z,10.73
2023-02-28T17:13:43.117Z,10.33
2023-02-28T17:18:47.797Z,10.27
2023-02-28T17:23:50.589Z,11.03
2023-02-28T17:28:56.978Z,10.93
2023-02-28T17:34:00.504Z,12.20
2023-02-28T17:39:07.252Z,18.63
2023-02-28T17:44:14.885Z,13.10
2023-02-28T17:49:19.314Z,11.73
2023-02-28T17:54:22.792Z,11.97
2023-02-28T17:59:27.020Z,9.97
2023-02-28T18:04:30.165Z,11.50
2023-02-28T18:09:32.906Z,11.47
2023-02-28T18:14:38.417Z,16.53
2023-02-28T18:19:42.032Z,11.17
2023-02-28T18:24:44.982Z,12.07
2023-02-28T18:29:50.182Z,11.57
2023-02-28T18:34:53.718Z,11.27
2023-02-28T18:39:58.469Z,11.53
2023-02-28T18:45:07.668Z,11.77
2023-02-28T18:50:12.294Z,13.27
2023-02-28T18:55:19.430Z,11.60
2023-02-28T19:00:27.529Z,11.60
2023-02-28T19:05:36.007Z,11.83
2023-02-28T19:10:42.601Z,11.93
2023-02-28T19:15:56.486Z,11.80
2023-02-28T19:21:01.474Z,12.27
2023-02-28T19:26:10.708Z,12.93
2023-02-28T19:31:19.772Z,13.30
2023-02-28T19:36:24.944Z,13.17
2023-02-28T19:41:28.755Z,12.67
2023-02-28T19:46:35.073Z,12.07
2023-02-28T19:51:45.008Z,12.63
2023-02-28T19:56:48.230Z,11.80
2023-02-28T20:01:55.362Z,11.40
2023-02-28T20:06:59.485Z,13.17
2023-02-28T20:12:07.111Z,13.60
2023-02-28T20:17:16.468Z,13.47
2023-02-28T20:22:20.381Z,12.17
2023-02-28T20:27:24.317Z,12.87
2023-02-28T20:32:30.776Z,13.23
2023-02-28T20:37:36.024Z,12.80
2023-02-28T20:42:40.375Z,13.13
2023-02-28T20:47:45.046Z,14.10
2023-02-28T20:52:48.305Z,13.90
2023-02-28T20:57:51.900Z,12.60
2023-02-28T21:02:58.917Z,12.70
2023-02-28T21:08:01.563Z,12.60
2023-02-28T21:13:03.850Z,13.07
2023-02-28T21:18:07.765Z,12.07
2023-02-28T21:23:10.263Z,11.73
2023-02-28T21:28:13.669Z,12.57
2023-02-28T21:33:17.964Z,13.13
2023-02-28T21:38:20.933Z,12.83
2023-02-28T21:43:23.152Z,13.00
2023-02-28T21:48:26.762Z,13.47
2023-02-28T21:53:28.863Z,12.17
2023-02-28T21:58:31.695Z,12.93
2023-02-28T22:03:35.954Z,12.73
2023-02-28T22:08:38.642Z,11.77
2023-02-28T22:13:41.901Z,12.20
2023-02-28T22:18:45.905Z,12.97
2023-02-28T22:23:48.408Z,12.63
2023-02-28T22:28:51.163Z,13.07
2023-02-28T22:33:57.537Z,12.40
2023-02-28T22:39:00.865Z,13.47
2023-02-28T22:44:17.328Z,12.43
2023-02-28T22:49:25.467Z,12.53
2023-02-28T22:54:46.909Z,12.80
2023-02-28T22:59:49.262Z,12.13
2023-02-28T23:04:53.456Z,12.07
2023-02-28T23:09:56.177Z,12.30
2023-02-28T23:14:58.327Z,11.73
2023-02-28T23:20:02.274Z,12.87
2023-02-28T23:25:04.925Z,12.87
2023-02-28T23:30:08.123Z,12.47
2023-02-28T23:35:12.950Z,12.50
2023-02-28T23:40:16.532Z,11.60
2023-02-28T23:45:22.360Z,12.20
2023-02-28T23:50:26.968Z,12.90
2023-02-28T23:55:29.030Z,12.27
